Česky Dansk Deutsch English Español Suomi Français Magyar Italiano Nederlands norsk Polski Português svenska Türkçe

 

Het Weer

Ingolstadt (Duitsland)

22:20, 22 augustus 2016 (GMT)

NWNNE
WE
SWSSE
Home            
Ingolstadt Neuburg / Donau Munchen Erding Augsburg Hohenfels Fuerstenfeldbruck Roth Oberpfaffenhofen Lechfeld Kuemmersruck Landsberg Ansbach / Katterbach Nuernberg Altenstadt Grafenwoehr Illesheim Memmingen Laupheim Niederstetten Bayreuth Salzburg-Flughafen Kitzingen Usa \ Af

Om een weerknop op uw website of weblog te plaatsen, copieer onderstaande code en plak die in uw pagina. In het eerste vakje staat HTML-code, in het tweede vakje UBB-code.


Add to Google

Details

Wind speed:1 bf, 2 kn, 1.0 m/s, 2.3 miles/h, 3.7 km/h
Wind direction:SW, 230°
Visibility: 6000 m, 6.0 km, 19685 ft, 3.7 miles
Het Weer:moderate
moderate
moderate
Temperature:14°C, 57°F
Dew-point:12°C, 54°F
Atmospheric pressure:1029 hPa, 771.8 mmHg, 30.39 inHg, 1.016 atm
Relative humidity:87.7 %
METAR:ETSI 222220Z AUTO 23002KT 6000 14/12 Q1029

Snelkoppelingen

Actuele weersinformatie van de hele wereld. Voeg locaties toe met het plus (+) symbool. Deze snelkoppelingen kunnen worden toegevoegd aan Google.

Lid van de Technetium groep

website free tracking
StatCounter NetStat W3C Validator

24-01-2021 12:32:22
astro.technetium.be money.technetium.be phote.technetium.be tafeltennistafel.technetium.be www.ligfiets.net